Racecast

Cadence Drougal

Calvin University (MI) · So · WRIGHT COUNTYMN DAAMSHSL D6AAWRIGHT · Compare head to head

Athlete rating
Races 148
Seasons 7 2019 — 2026
Speed rating — all races

Track & Field

TF speed rating

2026 TF

Calvin University (MI) · Grade So

Date Meet Event Result Place Rating Difficulty PR/SR Flags
2026-05-13 Augustana Midwest Twilight Qualifier 100mh 14.73 15th · 4th on team -0.028
2026-05-13 Augustana Midwest Twilight Qualifier 100mh 14.61 11th · 3rd on team -0.028
2026-05-08 St Francis Fighting Chance Invite 100mh 15.07 11th · 1st on team -0.027
2026-04-30 2026 MIAA Outdoor Championships 100mh 14.46 2nd · 2nd on team -0.026 ★PR SR
2026-04-30 2026 MIAA Outdoor Championships 100mh 14.77 4th · 4th on team -0.026
2026-04-18 Calvin Knight Invite 100mh 14.91 9th · 5th on team -0.014
2026-04-10 Meet results → Women's 100 Hurdles Preliminaries 15.2 22nd · 3rd on team ★PR SR
2026-03-28 Emory Thrills in the Hills 200m 26.65 37th · 5th on team -0.027 ★PR SR
2026-03-28 Emory Thrills in the Hills 100mh 14.96 9th · 4th on team -0.027 PR SR
2026-03-28 Emory Thrills in the Hills 100mh 14.87 7th · 3rd on team -0.027 PR SR
2026-03-06 Wartburg Qualifier 60mh 8.94 8th · 3rd on team -0.040 ★PR SR
2026-03-06 Wartburg Qualifier 60mh 9.07 12th · 4th on team -0.040
2026-02-27 MIAA Indoor T&F Championships 60mh 9.15 8th · 4th on team -0.029
2026-02-27 MIAA Indoor T&F Championships 60mh 9.05 4th · 3rd on team -0.029 PR SR
2026-02-14 GVSU Big Meet-SATURDAY 60mh 9.35 20th · 3rd on team -0.040
2026-02-13 WHAC vs MIAA Challenge 60mh 9.14 3rd · 3rd on team -0.032
2026-02-13 WHAC vs MIAA Challenge 60mh 9.2 4th · 4th on team -0.032
2026-02-06 Mrs G Invitational 60mh 9.14 5th · 3rd on team -0.029 PR SR
2026-02-06 Mrs G Invitational 200m 27.52 12th · 2nd on team -0.029
2026-02-06 Mrs G Invitational 60mh 9.26 9th · 4th on team -0.029
2026-01-24 Aurora Grand Prix 200m 27.61 23rd · 2nd on team -0.040
2026-01-24 Aurora Grand Prix 60mh 9.54 8th · 2nd on team -0.040
2025-12-05 GVSU Holiday Open 200m 27.33 56th · 7th on team -0.040 PR SR
2025-12-05 GVSU Holiday Open 60mh 9.3 24th · 3rd on team -0.040 PR SR

2025 TF

Calvin University (MI) · Grade Fr

Date Meet Event Result Place Rating Difficulty PR/SR Flags
2025-05-01 MIAA Outdoor T&F Championship hj NH -0.037
2025-05-01 MIAA Outdoor T&F Championship shot DNS -0.037
2025-05-01 MIAA Outdoor T&F Championship lj DNS -0.037
2025-05-01 MIAA Outdoor T&F Championship javelin DNS -0.037
2025-05-01 MIAA Outdoor T&F Championship 100mh 16.59 21st · 10th on team -0.037
2025-05-01 MIAA Outdoor T&F Championship 100mh 16.08 12th · 5th on team -0.037
2025-05-01 MIAA Outdoor T&F Championship 100mh 16.19 14th · 7th on team -0.037
2025-04-22 MIAA Outdoor Combined Events Championship 2025 hj NH -0.014
2025-04-22 MIAA Outdoor Combined Events Championship 2025 javelin DNS -0.014
2025-04-22 MIAA Outdoor Combined Events Championship 2025 lj DNS -0.014
2025-04-22 MIAA Outdoor Combined Events Championship 2025 shot DNS -0.014
2025-04-22 MIAA Outdoor Combined Events Championship 2025 100mh 16.59 4th · 2nd on team -0.014
2025-04-12 Meet results → Women's Shot Put 7.32m
2025-04-12 Meet results → Women's 100 Hurdles 15.99 5th · 2nd on team ★PR SR
2025-03-27 Meet results → Women's High Jump NH
2025-03-27 Thrills In The Hills hj NH -0.027
2025-03-27 Thrills In The Hills 100mh 15.76 17th · 3rd on team -0.027 SR
2025-03-01 Meet results → Women's 60 Hurdles Finals 9.48 8th · 4th on team ★PR SR
2025-03-01 Meet results → Women's 60 Hurdles Preliminaries 9.65 12th · 6th on team ★PR SR
2025-02-21 GVSU Tune-Up 60mh 9.69 16th · 2nd on team -0.040
2025-02-15 GVSU Big Meet Saturday 60mh 9.98 25th · 3rd on team -0.040
2024-12-06 GVSU Holiday Open 60mh 9.63 28th · 2nd on team -0.040 PR SR

2024 TF

Rockford (MI) · Grade 12

Date Meet Event Result Place Rating Difficulty PR/SR Flags
2024-05-01 East Kentwood @ Rockford hj NH -0.033
2024-05-01 East Kentwood @ Rockford lj ND -0.033
2024-04-29 OK Red: West Ottawa at Rockford hj 4' 10 -0.033
2024-04-29 OK Red: West Ottawa at Rockford 100mh 16.06 1st · 1st on team -0.033 SR
2024-04-26 Grand Ledge Comet Classic 100mh 16.63 7th · 3rd on team -0.026
2024-04-26 Grand Ledge Comet Classic 100mh 16.29 4th · 1st on team -0.026 SR
2024-04-24 OK Red: Rockford at Jenison HS hj 4' 10 -0.025
2024-04-24 OK Red: Rockford at Jenison HS 100mh 16.39 1st · 1st on team -0.025 SR
2024-04-20 Cougar Invitational 100mh 16.66 2nd · 1st on team -0.026
2024-04-17 Rockford at Grand Haven hj 4' 8 -0.033
2024-04-17 Rockford at Grand Haven 100mh 17.37 2nd · 2nd on team -0.033
2024-04-12 Ram Classic hj NH -0.033
2024-04-12 Ram Classic 100mh 16.57 6th · 2nd on team -0.033 SR
2024-04-10 Rockford at Hudsonville 200m 28.61 5th · 5th on team -0.030 PR SR
2024-04-10 Rockford at Hudsonville 100mh 16.81 2nd · 2nd on team -0.030 SR
2024-03-21 GVSU Laker Challenge- GIRLS Big Schools hj 5' 0 -0.040
2024-03-21 GVSU Laker Challenge- GIRLS Big Schools 60mh 9.7 7th · 3rd on team -0.040
2024-03-21 GVSU Laker Challenge- GIRLS Big Schools 60mh 9.87 10th · 5th on team -0.040
2024-01-06 GVSU - MITS #3 hj 1.52m -0.040
2024-01-06 GVSU - MITS #3 60mh 9.87 3rd · 3rd on team -0.040
2023-12-02 GVSU - MITS #1 hj 4-10 -0.040
2023-12-02 GVSU - MITS #1 60mh 9.68 2nd · 2nd on team -0.040 PR SR

2023 TF

Rockford (MI) · Grade 11

Date Meet Event Result Place Rating Difficulty PR/SR Flags
2023-06-03 2023 MHSAA LP D1 State T&F Championships 100mh 16.22 28th · 2nd on team -0.033
2023-05-26 2023 MITCA D1 Team State hj 4-09.00 -0.031
2023-05-26 2023 MITCA D1 Team State 100mh 16.28 6th · 2nd on team -0.031
2023-05-19 MHSAA LP Region 02-1 @ Grand Haven hj 5' 1 -0.033
2023-05-19 MHSAA LP Region 02-1 @ Grand Haven 100mh 16.46 12th · 8th on team -0.033
2023-05-19 MHSAA LP Region 02-1 @ Grand Haven 100mh 15.7 2nd · 2nd on team -0.033 PR SR
2023-05-12 OK Red Conference Meet hj 4-10.00 -0.030
2023-05-12 OK Red Conference Meet 100mh 16.35 8th · 4th on team -0.030 PR SR
2023-05-12 OK Red Conference Meet 100mh 16.92 14th · 7th on team -0.030
2023-05-05 23 SALINE GOLDEN TRIANGLE hj 5' 0 -0.033
2023-05-05 23 SALINE GOLDEN TRIANGLE 100mh 17.08 25th · 7th on team -0.033
2023-05-05 23 SALINE GOLDEN TRIANGLE 300mh 1:07.21 51st · 6th on team -0.033
2023-05-05 23 SALINE GOLDEN TRIANGLE 100mh 16.87 21st · 6th on team -0.033
2023-05-03 Rockford, Caledonia at Grandville HS hj 4-10.00 -0.027
2023-05-03 Rockford, Caledonia at Grandville HS 100mh 17.03 6th · 4th on team -0.027
2023-05-03 Rockford, Caledonia at Grandville HS 300mh 55.32 7th · 5th on team -0.027
2023-04-28 Spartan Classic Track and Field Invite hj 4' 7 -0.033
2023-04-26 Rockford @ East Kentwood hj 4' 8 -0.029
2023-04-26 Rockford @ East Kentwood 100mh 16.72 4th · 2nd on team -0.029 PR SR
2023-04-26 Rockford @ East Kentwood 300mh 54.35 9th · 5th on team -0.029 ★PR SR
2023-04-22 Cougar Invite hj 4' 10 -0.026
2023-04-22 Cougar Invite 100mh 19.8 19th · 4th on team -0.026
2023-04-19 West Ottawa, Hudsonville at Rockford HS hj 4-10.00 -0.033
2023-04-19 West Ottawa, Hudsonville at Rockford HS 100mh 18.57 5th · 4th on team -0.033
2023-04-15 Soderman Relays hj 5-00.00 -0.029
2023-04-12 Grand Haven, Jenison, at Rockford HS hj 4-10.00 -0.033
2023-04-12 Grand Haven, Jenison, at Rockford HS 300mh 55.91 6th · 4th on team -0.033 PR SR
2023-04-12 Grand Haven, Jenison, at Rockford HS 100mh 17.65 2nd · 2nd on team -0.033 PR SR
2023-03-23 GVSU Laker Challenge - Girls 60mh 10.22 18th · 5th on team -0.040 PR SR
2023-03-23 GVSU Laker Challenge - Girls 60mh 10.25 21st · 6th on team -0.040
2023-02-18 GVSU - MITS #5 hj 1.37m -0.040
2023-02-18 GVSU - MITS #5 60mh 10.29 8th · 7th on team -0.040 PR SR

2022 TF

Rockford (MI) · Grade 10

Date Meet Event Result Place Rating Difficulty PR/SR Flags
2022-05-20 MHSAA LP Region 02-1 @ Grand Haven hj 4-08.00 -0.033
2022-05-13 OK Red Conference Championship hj 4-10.00 -0.033
2022-05-07 Red Hawk Invitational hj 4-08.00 -0.026
2022-05-04 Caledonia at Rockford HS hj 4-08.00 -0.033
2022-05-04 Caledonia at Rockford HS 100mh 19.62 9th · 7th on team -0.033
2022-05-02 OK Red: Rockford at Jenison HS hj 4-08.00 -0.025
2022-05-02 OK Red: Rockford at Jenison HS 100mh 19.32 2nd · 2nd on team -0.025
2022-04-30 Grand Rapids Elite Challenge hj 4-06.00 -0.041
2022-04-27 Rockford at Grandville HS hj 4-06.00 -0.027
2022-04-27 Rockford at Grandville HS 100mh 19.53 9th · 7th on team -0.027
2022-04-25 Hudsonville at Rockford HS hj 4-10.00 -0.033
2022-04-25 Hudsonville at Rockford HS 100mh 19.08 9th · 8th on team -0.033 PR SR
2022-04-23 Cougar Invite hj 4' 8 -0.026
2022-04-20 East Kentwood at Rockford HS hj NH -0.033
2022-04-20 East Kentwood at Rockford HS 100mh 19.77 11th · 8th on team -0.033 SR
2022-04-13 Rockford at Grand Haven hj 4-10.00 -0.033
2022-04-13 Rockford at Grand Haven 100mh 20.14 9th · 9th on team -0.033 SR
2022-03-24 GVSU Laker Challenge - Girls hj 4-10.00 -0.040
2022-01-29 MITS - GVSU Meet #4 hj 4-06.00 -0.040
2022-01-29 MITS - GVSU Meet #4 60mh 11.29 15th · 14th on team -0.040 PR SR

2021 TF

Rockford (MI) · Grade 9

Date Meet Event Result Place Rating Difficulty PR/SR Flags
2021-05-26 Michiana Timing Metro Health Scholarship Invite hj 4-09.00 -0.035
2021-05-21 MHSAA LP Region 02-1 @ Grand Haven hj NH -0.033
2021-05-14 OK Red Conference Meet hj 4-08.00 -0.033
2021-05-10 Rockford HS at West Ottawa HS (Rescheduled from 4/21) lj 13-03.25 -0.025
2021-05-10 Rockford HS at West Ottawa HS (Rescheduled from 4/21) hj 4-08.00 -0.025
2021-05-10 Rockford HS at West Ottawa HS (Rescheduled from 4/21) 300mh 56.93 9th · 6th on team -0.025
2021-05-10 Rockford HS at West Ottawa HS (Rescheduled from 4/21) 100mh 19.22 7th · 6th on team -0.025 PR SR
2021-05-08 Red Hawk Invite hj 4-08.00 -0.026
2021-05-05 Rockford at Jenison lj 13-10.50 -0.025
2021-05-05 Rockford at Jenison hj 4-10.00 -0.025
2021-05-05 Rockford at Jenison 100mh 19.91 7th · 6th on team -0.025 PR SR
2021-05-05 Rockford at Jenison 300mh 56.15 4th · 3rd on team -0.025 PR SR
2021-05-01 EGR Classic hj 4-08.00 -0.026
2021-04-28 Rockford at Hudsonville lj 14-05.00 -0.030
2021-04-28 Rockford at Hudsonville hj 4-10.00 -0.030
2021-04-28 Rockford at Hudsonville 100mh 19.98 8th · 7th on team -0.030 PR SR
2021-04-28 Rockford at Hudsonville 300mh 56.67 5th · 4th on team -0.030 PR SR
2021-04-14 Rockford at Caledonia hj 4-06.00 -0.029
2021-04-14 Rockford at Caledonia lj 13-01.00 -0.029
2021-04-14 Rockford at Caledonia 100mh 20.34 7th · 6th on team -0.029 PR SR
2021-04-14 Rockford at Caledonia 300mh 57.24 5th · 4th on team -0.029 PR SR

2019 TF

North Rockford (MI) · Grade 7

Date Meet Event Result Place Rating Difficulty PR/SR Flags
2019-05-14 7th Grade Conference Meet at FHE hj 4-08.00 -0.028
2019-05-14 7th Grade Conference Meet at FHE lj 12-07.00 -0.028
2019-05-14 7th Grade Conference Meet at FHE 55mh 11.26 9th · 2nd on team -0.028 ★PR SR
2019-05-07 Northview MS and FHC MS @ North Rockford MS (Tri) hj 4'6 -0.030
2019-05-01 Forest Hills Eastern MS @ North Rockford MS lj 12'3" -0.030
2019-05-01 Forest Hills Eastern MS @ North Rockford MS 55mh 11.64 5th · 5th on team -0.030
2019-04-23 East Rockford MS @ North Rockford MS 55mh 11.44 6th · 6th on team -0.030 PR SR